Airport View

Enter AWOS ICAO identifier for current METAR.

ex. KFNL

KLBE 221850Z 27013KT 2SM -RA FEW006 OVC010 21/21 A2987

22 Jul 2019 19:13

Phone: 724-537-0671

Other Area AWOS: K2G9 - KAGC - KIDI - KJST

TAF AMD KLBE 221905Z 2219/2318 23008KT P6SM -SHRA BKN018 TEMPO 2219/2220 35012KT 2SM +TSRA BKN008CB FM222300 33006KT P6SM VCSH BKN015